Destinations Brønnøysund Airport

Brønnøysund Airport (ENBN / BNN)

Flights to Brønnøysund Airport

Flight number From ETE Dispatch
SPY-3113 ENVA Trondheim Airport Værnes 01:00

Flights from Brønnøysund Airport

Flight number To ETE Dispatch
SPY-3114 ENVA Trondheim Airport Værnes 01:00
About

Brønnøysund Airport facts

Brønnøysund Airport is located in Bronnoysund at an elevation of 7.6 meters or 25 feet.

Currently, Speedy Airlines serves 2 flights to and from Brønnøysund Airport.

Detailed airport info

Route map

Weather

Current weather

METAR

METAR

Metar data retrieved Sunday, 21 July 2024 at 18:25 UTC

ENBN 211750Z 12016G27KT CAVOK 25/15 Q1007
Wind Temperature
16/27 kt 25c